createdAt,value
2018-02-23T15:19:39.334Z,9040
2018-02-23T15:21:12.957Z,9584
2018-02-23T15:22:15.333Z,8960
2018-02-23T15:23:17.991Z,9528
2018-02-23T15:24:20.356Z,9276
2018-02-23T15:25:23.009Z,9244
2018-02-23T15:26:25.388Z,8624
2018-02-23T15:27:27.757Z,8052
2018-02-23T15:28:30.134Z,8392
2018-02-23T15:29:32.504Z,7752
2018-02-23T15:30:34.877Z,6948
2018-02-23T15:31:37.252Z,6364
2018-02-23T15:32:39.622Z,6720
2018-02-23T15:33:41.988Z,7004
2018-02-23T15:34:44.360Z,6476
2018-02-23T15:35:46.739Z,7384
2018-02-23T15:36:49.114Z,7176
2018-02-23T15:37:51.490Z,6000
2018-02-23T15:38:54.131Z,5616
2018-02-23T15:39:56.503Z,5440
2018-02-23T15:40:58.887Z,5508
2018-02-23T15:42:01.255Z,5632
2018-02-23T15:43:03.628Z,5852
2018-02-23T15:44:06.303Z,5868
2018-02-23T15:45:08.670Z,6668
2018-02-23T15:46:11.054Z,6396
2018-02-23T15:47:13.440Z,5444
2018-02-23T15:48:16.092Z,5136
2018-02-23T15:49:18.460Z,4616
2018-02-23T15:50:21.192Z,4404
2018-02-23T15:51:23.500Z,4268
2018-02-23T15:52:26.151Z,4248
2018-02-23T15:53:28.509Z,4164
2018-02-23T15:54:30.879Z,4088
2018-02-23T15:55:33.247Z,3960
2018-02-23T15:56:35.613Z,3844
2018-02-23T15:57:38.000Z,3756
2018-02-23T15:58:40.359Z,3768
2018-02-23T15:59:42.737Z,3676
2018-02-23T16:00:45.106Z,3496
2018-02-23T16:01:47.474Z,3392
2018-02-23T16:02:50.131Z,3276
2018-02-23T16:03:52.501Z,3140
2018-02-23T16:04:54.866Z,3012
2018-02-23T16:05:57.250Z,2880
2018-02-23T16:06:59.613Z,2728
2018-02-23T16:08:02.266Z,2616
2018-02-23T16:09:04.920Z,2528
2018-02-23T16:10:07.287Z,2472
2018-02-23T16:11:09.698Z,2400
2018-02-23T16:12:12.037Z,2260
2018-02-23T16:13:14.676Z,2176
2018-02-23T16:14:17.357Z,2128
2018-02-23T16:15:19.729Z,2048
2018-02-23T16:16:22.116Z,1948
2018-02-23T16:17:24.767Z,1868
2018-02-23T16:18:27.424Z,1792
2018-02-23T16:19:30.068Z,1720
2018-02-23T16:20:32.438Z,1652
2018-02-23T16:21:34.819Z,1580
2018-02-23T16:22:37.480Z,1500
2018-02-23T16:23:39.845Z,1424
2018-02-23T16:24:42.221Z,1344
2018-02-23T16:25:44.868Z,1272
2018-02-23T16:26:47.249Z,1208
2018-02-23T16:27:49.905Z,1144
2018-02-23T16:28:52.558Z,1068
2018-02-23T16:29:54.918Z,988
2018-02-23T16:30:57.301Z,912
2018-02-23T16:31:59.671Z,840
2018-02-23T16:33:02.325Z,772
2018-02-23T16:34:04.693Z,712
2018-02-23T16:35:07.056Z,660
2018-02-23T16:36:09.743Z,612
2018-02-23T16:37:12.108Z,560
2018-02-23T16:38:14.472Z,520
2018-02-23T16:39:17.144Z,476
2018-02-23T16:40:19.514Z,436
2018-02-23T16:41:21.879Z,400
2018-02-23T16:42:24.248Z,364
2018-02-23T16:43:26.619Z,332
2018-02-23T16:44:28.989Z,300
2018-02-23T16:45:31.373Z,272
2018-02-23T16:46:34.030Z,244
2018-02-23T16:47:36.404Z,220
2018-02-23T16:48:38.776Z,196
2018-02-23T16:49:41.146Z,172
2018-02-23T16:50:43.512Z,152
2018-02-23T16:51:46.172Z,136
2018-02-23T16:52:48.821Z,120
2018-02-23T16:53:51.480Z,104
2018-02-23T16:54:53.839Z,92
2018-02-23T16:55:56.216Z,76
2018-02-23T16:56:58.589Z,68
2018-02-23T16:58:00.955Z,56
2018-02-23T16:59:03.320Z,48
2018-02-23T17:00:05.965Z,40
2018-02-23T17:01:08.636Z,36
2018-02-23T17:02:11.004Z,28
2018-02-23T17:03:13.367Z,24
2018-02-23T17:04:15.738Z,20
2018-02-23T17:05:18.105Z,20
2018-02-23T17:06:20.477Z,12
2018-02-23T17:07:22.848Z,12
2018-02-23T17:08:25.218Z,8
2018-02-23T17:09:27.572Z,8
2018-02-23T17:10:29.949Z,8
2018-02-23T17:11:32.593Z,4
2018-02-23T17:12:34.963Z,8
2018-02-23T17:13:37.340Z,4
2018-02-23T17:14:39.984Z,4
2018-02-23T17:15:42.361Z,4
2018-02-23T17:16:44.740Z,0
2018-02-23T17:17:47.100Z,4
2018-02-23T17:18:49.461Z,4
2018-02-23T17:19:51.820Z,0
2018-02-23T17:20:54.194Z,0
2018-02-23T17:21:56.558Z,0
2018-02-23T17:22:58.930Z,0
2018-02-23T17:24:01.307Z,0
2018-02-23T17:25:03.955Z,0
2018-02-23T17:26:06.319Z,0
2018-02-23T17:27:08.703Z,0
2018-02-23T17:28:11.347Z,0
2018-02-23T17:29:13.713Z,0
2018-02-23T17:30:16.657Z,0
2018-02-23T17:31:19.032Z,0
2018-02-23T17:32:21.677Z,0
2018-02-23T17:33:24.056Z,0
2018-02-23T17:34:26.710Z,0
2018-02-23T17:35:29.091Z,0
2018-02-23T17:36:31.474Z,0
2018-02-23T17:37:33.848Z,0
2018-02-23T17:38:36.506Z,0
2018-02-23T17:39:38.883Z,0
2018-02-23T17:40:41.536Z,0
2018-02-23T17:41:43.911Z,0
2018-02-23T17:42:46.289Z,0
2018-02-23T17:43:48.665Z,0
2018-02-23T17:44:51.048Z,0
2018-02-23T17:45:53.424Z,0
2018-02-23T17:46:55.805Z,0
2018-02-23T17:47:58.189Z,0
2018-02-23T17:49:00.560Z,0
2018-02-23T17:50:02.992Z,0
2018-02-23T17:51:05.655Z,0
2018-02-23T17:52:08.052Z,0
2018-02-23T17:53:10.426Z,0
2018-02-23T17:54:13.076Z,0
2018-02-23T17:55:15.452Z,0
2018-02-23T17:56:17.830Z,0
2018-02-23T17:57:20.204Z,0
2018-02-23T17:58:22.577Z,0
2018-02-23T17:59:25.224Z,0
2018-02-23T18:00:27.593Z,0
2018-02-23T18:01:30.251Z,0
2018-02-23T18:02:32.674Z,0
2018-02-23T18:03:35.046Z,0
2018-02-23T18:04:37.433Z,0
2018-02-23T18:05:40.116Z,0
2018-02-23T18:06:42.498Z,0
2018-02-23T18:07:44.874Z,0
2018-02-23T18:08:47.258Z,0
2018-02-23T18:09:49.641Z,0
2018-02-23T18:10:52.016Z,0
2018-02-23T18:11:54.390Z,0
2018-02-23T18:12:57.070Z,0
2018-02-23T18:13:59.449Z,0
2018-02-23T18:15:02.119Z,0
2018-02-23T18:16:04.473Z,0
2018-02-23T18:17:06.849Z,0
2018-02-23T18:18:09.211Z,0
2018-02-23T18:19:11.579Z,0
2018-02-23T18:20:13.955Z,0
2018-02-23T18:21:16.316Z,0
2018-02-23T18:22:18.682Z,0
2018-02-23T18:23:21.053Z,0
2018-02-23T18:24:23.433Z,0
2018-02-23T18:25:26.078Z,0
2018-02-23T18:26:28.457Z,0
2018-02-23T18:27:30.826Z,0
2018-02-23T18:28:33.193Z,0
2018-02-23T18:29:35.855Z,0
2018-02-23T18:30:38.502Z,0
2018-02-23T18:31:40.873Z,0
2018-02-23T18:32:43.246Z,0
2018-02-23T18:33:45.614Z,0
2018-02-23T18:34:47.975Z,0
2018-02-23T18:35:50.345Z,0
2018-02-23T18:36:53.012Z,0
2018-02-23T18:37:55.375Z,0
2018-02-23T18:38:57.743Z,0
2018-02-23T18:40:00.107Z,0
2018-02-23T18:41:02.478Z,0
2018-02-23T18:42:04.866Z,0
2018-02-23T18:43:07.201Z,0
2018-02-23T18:44:09.581Z,0
2018-02-23T18:45:11.948Z,0
2018-02-23T18:46:14.313Z,0
2018-02-23T18:47:16.684Z,0
2018-02-23T18:48:19.057Z,0
2018-02-23T18:49:21.412Z,0
2018-02-23T18:50:23.784Z,0
2018-02-23T18:51:26.154Z,0
2018-02-23T18:52:28.525Z,0
2018-02-23T18:53:30.890Z,0
2018-02-23T18:54:33.547Z,0
2018-02-23T18:55:35.911Z,0
2018-02-23T18:56:38.289Z,0
2018-02-23T18:57:40.655Z,0
2018-02-23T18:58:43.032Z,0
2018-02-23T18:59:45.435Z,0
2018-02-23T19:00:47.774Z,0
2018-02-23T19:01:50.137Z,0
2018-02-23T19:02:52.784Z,0
2018-02-23T19:03:55.150Z,0
2018-02-23T19:04:57.522Z,0
2018-02-23T19:05:59.903Z,0
2018-02-23T19:07:02.555Z,0
2018-02-23T19:08:04.909Z,0
2018-02-23T19:09:07.273Z,0
2018-02-23T19:10:09.649Z,0
2018-02-23T19:11:12.020Z,0
2018-02-23T19:12:15.013Z,0
2018-02-23T19:13:17.384Z,0
2018-02-23T19:14:19.759Z,0
2018-02-23T19:15:22.130Z,0
2018-02-23T19:16:24.502Z,0
2018-02-23T19:17:26.853Z,0
2018-02-23T19:18:29.232Z,0
2018-02-23T19:19:31.598Z,0
2018-02-23T19:20:34.250Z,0
2018-02-23T19:21:36.619Z,0
2018-02-23T19:22:38.983Z,0
2018-02-23T19:23:41.363Z,0
2018-02-23T19:24:43.724Z,0
2018-02-23T19:25:46.094Z,0
2018-02-23T19:26:48.465Z,0
2018-02-23T19:27:50.823Z,0
2018-02-23T19:28:53.195Z,0
2018-02-23T19:29:55.557Z,0
2018-02-23T19:30:57.920Z,0
2018-02-23T19:32:00.277Z,0
2018-02-23T19:33:03.217Z,0
2018-02-23T19:34:05.569Z,0
2018-02-23T19:35:07.935Z,0
2018-02-23T19:36:10.307Z,0
2018-02-23T19:37:12.965Z,0
2018-02-23T19:38:15.339Z,0
2018-02-23T19:39:17.703Z,0
2018-02-23T19:40:20.072Z,0
2018-02-23T19:41:22.729Z,0
2018-02-23T19:42:25.097Z,0
2018-02-23T19:43:27.460Z,0
2018-02-23T19:44:29.836Z,0
2018-02-23T19:45:32.236Z,0
2018-02-23T19:46:34.856Z,0
2018-02-23T19:47:37.216Z,0
2018-02-23T19:48:39.598Z,0
2018-02-23T19:49:41.972Z,0
2018-02-23T19:50:44.325Z,0
2018-02-23T19:51:46.762Z,0
2018-02-23T19:52:49.076Z,0
2018-02-23T19:53:51.445Z,0
2018-02-23T19:54:53.821Z,0
2018-02-23T19:55:56.464Z,0
2018-02-23T19:56:59.487Z,0
2018-02-23T19:58:02.552Z,0
2018-02-23T19:59:05.626Z,0
2018-02-23T20:00:11.259Z,0
2018-02-23T20:01:17.526Z,0
2018-02-23T20:02:20.604Z,0
2018-02-23T20:03:24.473Z,0
2018-02-23T20:04:28.516Z,0
2018-02-23T20:05:31.582Z,0
2018-02-23T20:06:34.812Z,0
2018-02-23T20:07:40.135Z,0
2018-02-23T20:08:43.292Z,0
2018-02-23T20:09:45.808Z,0
2018-02-23T20:10:48.236Z,0
2018-02-23T20:11:50.601Z,0
2018-02-23T20:12:52.976Z,0
2018-02-23T20:13:55.337Z,0
2018-02-23T20:14:57.704Z,0
2018-02-23T20:16:00.069Z,0
2018-02-23T20:17:02.441Z,0
2018-02-23T20:18:04.821Z,0
2018-02-23T20:19:07.527Z,0
2018-02-23T20:20:09.899Z,0
2018-02-23T20:21:12.277Z,0
2018-02-23T20:22:14.635Z,0
2018-02-23T20:23:17.280Z,0
2018-02-23T20:24:19.660Z,0
2018-02-23T20:25:22.018Z,0
2018-02-23T20:26:24.381Z,0
2018-02-23T20:27:26.753Z,0
2018-02-23T20:28:29.115Z,0
2018-02-23T20:29:31.493Z,0
2018-02-23T20:30:33.866Z,0
2018-02-23T20:31:36.214Z,0
2018-02-23T20:32:38.881Z,0
2018-02-23T20:33:41.234Z,0
2018-02-23T20:34:43.617Z,0
2018-02-23T20:35:46.547Z,0
2018-02-23T20:36:48.915Z,0
2018-02-23T20:37:51.286Z,0
2018-02-23T20:38:54.222Z,0
2018-02-23T20:39:56.581Z,0
2018-02-23T20:40:58.962Z,0
2018-02-23T20:42:01.333Z,0
2018-02-23T20:43:03.682Z,0
2018-02-23T20:44:06.063Z,0
2018-02-23T20:45:08.429Z,0
2018-02-23T20:46:11.074Z,0
2018-02-23T20:47:13.445Z,0
2018-02-23T20:48:15.807Z,0
2018-02-23T20:49:18.179Z,0
2018-02-23T20:50:20.544Z,0
2018-02-23T20:51:22.915Z,0
2018-02-23T20:52:25.286Z,0
2018-02-23T20:53:27.649Z,0
2018-02-23T20:54:30.019Z,0
2018-02-23T20:55:32.379Z,0
2018-02-23T20:56:34.747Z,0
2018-02-23T20:57:37.268Z,0
2018-02-23T20:58:39.917Z,0
2018-02-23T20:59:42.295Z,0
2018-02-23T21:00:44.663Z,0
2018-02-23T21:01:47.320Z,0
2018-02-23T21:02:49.681Z,0
2018-02-23T21:03:52.054Z,0
2018-02-23T21:04:54.689Z,0
2018-02-23T21:05:57.053Z,0
2018-02-23T21:06:59.433Z,0
2018-02-23T21:08:01.797Z,0
2018-02-23T21:09:04.164Z,0
2018-02-23T21:10:06.809Z,0
2018-02-23T21:11:09.174Z,0
2018-02-23T21:12:11.832Z,0
2018-02-23T21:13:14.486Z,0
2018-02-23T21:14:16.845Z,0
2018-02-23T21:15:19.494Z,0
2018-02-23T21:16:22.154Z,0
2018-02-23T21:17:24.519Z,0
2018-02-23T21:18:27.165Z,0
2018-02-23T21:19:29.814Z,0
2018-02-23T21:20:32.177Z,0
2018-02-23T21:21:34.835Z,0
2018-02-23T21:22:37.198Z,0
2018-02-23T21:23:39.559Z,0
2018-02-23T21:24:41.927Z,0
2018-02-23T21:25:44.883Z,0
2018-02-23T21:26:47.255Z,0
2018-02-23T21:27:49.621Z,0
2018-02-23T21:28:51.993Z,0
2018-02-23T21:29:54.644Z,0
2018-02-23T21:30:57.012Z,0
2018-02-23T21:31:59.673Z,0
2018-02-23T21:33:02.041Z,0
2018-02-23T21:34:04.406Z,0
2018-02-23T21:35:06.770Z,0
2018-02-23T21:36:09.146Z,0
2018-02-23T21:37:11.507Z,0
2018-02-23T21:38:13.880Z,0
2018-02-23T21:39:16.525Z,0
2018-02-23T21:40:18.890Z,0
2018-02-23T21:41:21.265Z,0
2018-02-23T21:42:23.626Z,0
2018-02-23T21:43:25.996Z,0
2018-02-23T21:44:28.368Z,0
2018-02-23T21:45:30.741Z,0
2018-02-23T21:46:33.404Z,0
2018-02-23T21:47:35.797Z,0
2018-02-23T21:48:38.120Z,0
2018-02-23T21:49:40.496Z,0
2018-02-23T21:50:42.858Z,0
2018-02-23T21:51:45.223Z,0
2018-02-23T21:52:47.584Z,0
2018-02-23T21:53:49.994Z,0
2018-02-23T21:54:52.327Z,0
2018-02-23T21:55:54.698Z,0
2018-02-23T21:56:57.056Z,0
2018-02-23T21:57:59.705Z,0
2018-02-23T21:59:02.076Z,0
2018-02-23T22:00:04.439Z,0
2018-02-23T22:01:06.815Z,0
2018-02-23T22:02:09.453Z,0
2018-02-23T22:03:11.820Z,0
2018-02-23T22:04:14.204Z,0
2018-02-23T22:05:16.554Z,0
2018-02-23T22:06:18.915Z,0
2018-02-23T22:07:21.293Z,0
2018-02-23T22:08:23.932Z,0
2018-02-23T22:09:26.310Z,0
2018-02-23T22:10:28.681Z,0
2018-02-23T22:11:31.032Z,0
2018-02-23T22:12:33.406Z,0
2018-02-23T22:13:35.778Z,0
2018-02-23T22:14:38.130Z,0
2018-02-23T22:15:40.784Z,0
2018-02-23T22:16:43.153Z,0
2018-02-23T22:17:45.515Z,0
2018-02-23T22:18:47.877Z,0
2018-02-23T22:19:50.528Z,0
2018-02-23T22:20:52.906Z,0
2018-02-23T22:21:55.275Z,0
2018-02-23T22:22:57.639Z,0
2018-02-23T22:24:00.005Z,0
2018-02-23T22:25:02.378Z,0
2018-02-23T22:26:04.753Z,0
2018-02-23T22:27:07.120Z,0
2018-02-23T22:28:09.482Z,0
2018-02-23T22:29:12.126Z,0
2018-02-23T22:30:14.497Z,0
2018-02-23T22:31:16.859Z,0
2018-02-23T22:32:19.229Z,0
2018-02-23T22:33:21.588Z,0
2018-02-23T22:34:23.949Z,0
2018-02-23T22:35:26.324Z,0
2018-02-23T22:36:28.689Z,0
2018-02-23T22:37:31.041Z,0
2018-02-23T22:38:33.405Z,0
2018-02-23T22:39:35.776Z,0
2018-02-23T22:40:38.142Z,0
2018-02-23T22:41:40.518Z,0
2018-02-23T22:42:42.878Z,0
2018-02-23T22:43:45.241Z,0
2018-02-23T22:44:47.620Z,0
2018-02-23T22:45:50.260Z,0
2018-02-23T22:46:52.616Z,0
2018-02-23T22:47:54.985Z,0
2018-02-23T22:48:57.352Z,0
2018-02-23T22:49:59.723Z,0
2018-02-23T22:51:02.091Z,0
2018-02-23T22:52:04.463Z,0
2018-02-23T22:53:06.828Z,0
2018-02-23T22:54:09.193Z,0
2018-02-23T22:55:11.567Z,0
2018-02-23T22:56:13.924Z,0
2018-02-23T22:57:16.578Z,0
2018-02-23T22:58:18.948Z,0
2018-02-23T22:59:21.593Z,0
2018-02-23T23:00:23.957Z,0
2018-02-23T23:01:26.618Z,0
2018-02-23T23:02:29.260Z,0
2018-02-23T23:03:31.911Z,0
2018-02-23T23:04:34.274Z,0
2018-02-23T23:05:36.639Z,0
2018-02-23T23:06:39.011Z,0
2018-02-23T23:07:41.377Z,0
2018-02-23T23:08:43.750Z,0
2018-02-23T23:09:46.121Z,0
2018-02-23T23:10:48.475Z,0
2018-02-23T23:11:51.130Z,0
2018-02-23T23:12:53.491Z,0
2018-02-23T23:13:55.857Z,0
2018-02-23T23:14:58.225Z,0
2018-02-23T23:16:00.587Z,0
2018-02-23T23:17:02.952Z,0
2018-02-23T23:18:05.332Z,0
2018-02-23T23:19:08.254Z,0
2018-02-23T23:20:10.628Z,0
2018-02-23T23:21:12.990Z,0
2018-02-23T23:22:15.369Z,0
2018-02-23T23:23:17.732Z,0
2018-02-23T23:24:20.100Z,0
2018-02-23T23:25:22.466Z,0
2018-02-23T23:26:24.828Z,0
2018-02-23T23:27:27.196Z,0
2018-02-23T23:28:29.567Z,0
2018-02-23T23:29:31.928Z,0
2018-02-23T23:30:34.292Z,0
2018-02-23T23:31:36.651Z,0
2018-02-23T23:32:39.028Z,0
2018-02-23T23:33:41.397Z,0
2018-02-23T23:34:43.751Z,0
2018-02-23T23:35:46.120Z,0
2018-02-23T23:36:48.489Z,0
2018-02-23T23:37:50.857Z,0
2018-02-23T23:38:53.227Z,0
2018-02-23T23:39:55.592Z,0
2018-02-23T23:40:57.962Z,0
2018-02-23T23:42:00.356Z,0
2018-02-23T23:43:03.336Z,0
2018-02-23T23:44:05.693Z,0
2018-02-23T23:45:08.058Z,0
2018-02-23T23:46:10.437Z,0
2018-02-23T23:47:12.802Z,0
2018-02-23T23:48:15.169Z,0
2018-02-23T23:49:17.540Z,0
2018-02-23T23:50:19.901Z,0
2018-02-23T23:51:22.273Z,0
2018-02-23T23:52:24.651Z,0
2018-02-23T23:53:27.004Z,0
2018-02-23T23:54:29.378Z,0
2018-02-23T23:55:31.748Z,0
2018-02-23T23:56:34.394Z,0
2018-02-23T23:57:37.044Z,0
2018-02-23T23:58:39.419Z,0
2018-02-23T23:59:42.053Z,0
